Da Nang International Airport
VVDN : now visible

Airfield :











YOU CAN JOIN US ON...

 
LOGIN :

Register | Disclaimer

   EN    FR    IT 

 









Legend :    VFR   Marginal VFR   IFR   Intensive IFR   Very Intensive IFR
Visi :
Ceiling :
>= 8 km
>= 3000ft
5 to 8 km
1000 to 3000 ft
1500m to 5 km
500 to 1000 ft
800 to 1500m
200 to 500 ft
< 800m
< 200 ft
Symbols :   Thunderstorms  Fog  Heavy snow  Heavy precipitations  Wind > 20 kt






- Airport Elevation : 33 ft
- IATA code : DAD


VVDN - Da Nang International

CURRENT METAR :
  • 061200Z 12005KT 9999 FEW017CB 31/26 Q1007 NOSIG

EXPIRED METARs :
  • 061130Z 13005KT 9999 FEW017CB 31/25 Q1006 NOSIG
  • 061100Z 11004KT 9999 FEW017TCU 32/25 Q1006 NOSIG
  • 061030Z 12004KT 070V140 9999 FEW017TCU 32/25 Q1005 NOSIG
  • 061000Z 10007KT 070V140 9999 FEW017TCU 33/24 Q1005 NOSIG
  • 060930Z 10007KT 070V140 9999 FEW017TCU 33/24 Q1005 NOSIG

TAF TAF VVDN
Valid from the 06 at 12:00 until the 07 at 12:00 UTC


061100Z 0612/0712 12006KT 9999 FEW015
TEMPO 0612/0614 TS FEW015 FEW017CB
TEMPO 0708/0712 TS FEW015 FEW017CB
VVTS FIR / Asia



MET'MAP, your aeronautical weather chart ! - Copyright ORBIFLY December 2007 - Disclaimer

ORBIFLY MET'MAP TEAM :

Programming & Development : Alexandra Zaïnal
Concept & original design : Baudouin d'Aumeries
Assistance for programming : Marc-Olivier Méhu
Technical & hardware support : Manuel Goepfert

Contact : metmap@orbifly.com




SOURCES & CREDITS :

   NOAA       Earth
Advisory